createdAt,value
2023-03-22T00:00:40.929Z,10.64
2023-03-22T00:01:40.428Z,10.64
2023-03-22T00:02:40.495Z,10.63
2023-03-22T00:03:40.462Z,10.60
2023-03-22T00:04:40.419Z,10.56
2023-03-22T00:05:40.416Z,10.56
2023-03-22T00:06:40.415Z,10.56
2023-03-22T00:07:40.412Z,10.53
2023-03-22T00:08:40.407Z,10.60
2023-03-22T00:09:40.402Z,10.54
2023-03-22T00:10:40.794Z,10.60
2023-03-22T00:11:40.393Z,10.61
2023-03-22T00:12:40.392Z,10.60
2023-03-22T00:13:40.384Z,10.64
2023-03-22T00:14:40.383Z,10.53
2023-03-22T00:15:40.427Z,10.64
2023-03-22T00:16:40.373Z,10.64
2023-03-22T00:17:40.376Z,10.60
2023-03-22T00:18:40.372Z,10.54
2023-03-22T00:19:40.372Z,10.64
2023-03-22T00:20:40.775Z,10.56
2023-03-22T00:21:40.358Z,10.63
2023-03-22T00:22:40.357Z,10.56
2023-03-22T00:23:40.352Z,10.54
2023-03-22T00:24:40.346Z,10.63
2023-03-22T00:25:40.344Z,10.64
2023-03-22T00:26:40.363Z,10.63
2023-03-22T00:27:40.337Z,10.61
2023-03-22T00:28:40.338Z,10.60
2023-03-22T00:29:40.330Z,10.64
2023-03-22T00:30:40.737Z,10.64
2023-03-22T00:31:40.386Z,10.68
2023-03-22T00:32:40.320Z,10.68
2023-03-22T00:33:40.318Z,10.63
2023-03-22T00:34:40.316Z,10.60
2023-03-22T00:35:40.359Z,10.67
2023-03-22T00:36:40.320Z,10.69
2023-03-22T00:37:40.308Z,10.64
2023-03-22T00:38:44.408Z,10.61
2023-03-22T00:39:40.300Z,10.61
2023-03-22T00:40:40.606Z,10.64
2023-03-22T00:41:40.295Z,10.68
2023-03-22T00:42:40.321Z,10.64
2023-03-22T00:43:40.290Z,10.61
2023-03-22T00:44:40.287Z,10.59
2023-03-22T00:45:40.279Z,10.63
2023-03-22T00:46:40.287Z,10.59
2023-03-22T00:47:40.373Z,10.63
2023-03-22T00:48:40.279Z,10.56
2023-03-22T00:49:40.270Z,10.61
2023-03-22T00:50:40.754Z,10.56
2023-03-22T00:51:40.269Z,10.63
2023-03-22T00:52:40.260Z,10.59
2023-03-22T00:53:42.852Z,10.54
2023-03-22T00:54:40.253Z,10.59
2023-03-22T00:55:40.247Z,10.53
2023-03-22T00:56:40.248Z,10.53
2023-03-22T00:57:40.257Z,10.51
2023-03-22T00:58:40.262Z,10.53
2023-03-22T00:59:40.238Z,10.56
2023-03-22T01:00:40.792Z,10.53
2023-03-22T01:01:40.237Z,10.61
2023-03-22T01:02:40.231Z,10.49
2023-03-22T01:03:40.268Z,10.54
2023-03-22T01:04:40.216Z,10.60
2023-03-22T01:05:40.220Z,10.53
2023-03-22T01:06:40.210Z,10.56
2023-03-22T01:07:40.210Z,10.57
2023-03-22T01:08:40.201Z,10.51
2023-03-22T01:09:40.205Z,10.49
2023-03-22T01:10:40.645Z,10.51
2023-03-22T01:11:40.192Z,10.53
2023-03-22T01:12:40.190Z,10.54
2023-03-22T01:13:40.187Z,10.40
2023-03-22T01:14:40.203Z,10.44
2023-03-22T01:15:40.178Z,10.48
2023-03-22T01:16:40.190Z,10.51
2023-03-22T01:17:40.179Z,10.44
2023-03-22T01:18:40.172Z,10.44
2023-03-22T01:19:40.166Z,10.48
2023-03-22T01:20:40.480Z,10.42
2023-03-22T01:21:40.172Z,10.42
2023-03-22T01:22:40.154Z,10.38
2023-03-22T01:23:40.152Z,10.38
2023-03-22T01:24:40.147Z,10.42
2023-03-22T01:25:40.147Z,10.37
2023-03-22T01:26:40.137Z,10.38
2023-03-22T01:27:40.139Z,10.35
2023-03-22T01:28:40.129Z,10.38
2023-03-22T01:29:40.129Z,10.41
2023-03-22T01:30:40.598Z,10.41
2023-03-22T01:31:40.125Z,10.37
2023-03-22T01:32:40.122Z,10.31
2023-03-22T01:33:40.117Z,10.34
2023-03-22T01:34:40.114Z,10.28
2023-03-22T01:35:40.145Z,10.30
2023-03-22T01:36:40.103Z,10.31
2023-03-22T01:37:40.103Z,10.20
2023-03-22T01:38:40.099Z,10.25
2023-03-22T01:39:40.100Z,10.25
2023-03-22T01:40:40.387Z,10.23
2023-03-22T01:41:40.094Z,10.23
2023-03-22T01:42:40.088Z,10.26
2023-03-22T01:43:40.088Z,10.20
2023-03-22T01:44:40.084Z,10.20
2023-03-22T01:45:40.088Z,10.25
2023-03-22T01:46:40.194Z,10.20
2023-03-22T01:47:40.092Z,10.20
2023-03-22T01:48:40.115Z,10.25
2023-03-22T01:49:40.073Z,10.25
2023-03-22T01:50:40.331Z,10.22
2023-03-22T01:51:41.636Z,10.25
2023-03-22T01:52:40.058Z,10.19
2023-03-22T01:53:40.142Z,10.23
2023-03-22T01:54:40.060Z,10.26
2023-03-22T01:55:40.043Z,10.23
2023-03-22T01:56:40.038Z,10.16
2023-03-22T01:57:40.056Z,10.23
2023-03-22T01:58:40.048Z,10.16
2023-03-22T01:59:40.050Z,10.19
2023-03-22T02:00:40.491Z,10.15
2023-03-22T02:01:40.094Z,10.10
2023-03-22T02:02:40.104Z,10.15
2023-03-22T02:03:40.024Z,10.07
2023-03-22T02:04:40.016Z,10.17
2023-03-22T02:05:40.012Z,10.10
2023-03-22T02:06:40.023Z,10.20
2023-03-22T02:07:40.006Z,10.07
2023-03-22T02:08:40.002Z,10.07
2023-03-22T02:09:40.002Z,10.07
2023-03-22T02:10:40.298Z,10.05
2023-03-22T02:11:39.997Z,10.05
2023-03-22T02:12:39.986Z,10.05
2023-03-22T02:13:39.988Z,9.94
2023-03-22T02:14:40.003Z,9.94
2023-03-22T02:15:40.014Z,9.99
2023-03-22T02:16:39.971Z,9.87
2023-03-22T02:17:39.974Z,9.94
2023-03-22T02:18:39.982Z,9.94
2023-03-22T02:19:39.967Z,9.83
2023-03-22T02:20:40.402Z,9.94
2023-03-22T02:21:39.955Z,9.86
2023-03-22T02:22:39.950Z,9.92
2023-03-22T02:23:39.948Z,9.91
2023-03-22T02:24:39.944Z,9.89
2023-03-22T02:25:39.948Z,9.83
2023-03-22T02:26:39.937Z,9.79
2023-03-22T02:27:39.934Z,9.83
2023-03-22T02:28:39.928Z,9.84
2023-03-22T02:29:39.930Z,9.83
2023-03-22T02:30:40.207Z,9.74
2023-03-22T02:31:39.925Z,9.66
2023-03-22T02:32:39.916Z,9.72
2023-03-22T02:33:41.657Z,9.69
2023-03-22T02:34:39.933Z,9.65
2023-03-22T02:35:39.968Z,9.66
2023-03-22T02:36:39.904Z,9.68
2023-03-22T02:37:39.899Z,9.65
2023-03-22T02:38:39.895Z,9.68
2023-03-22T02:39:39.897Z,9.66
2023-03-22T02:40:40.219Z,9.72
2023-03-22T02:41:39.886Z,9.68
2023-03-22T02:42:39.895Z,9.66
2023-03-22T02:43:39.877Z,9.59
2023-03-22T02:44:39.872Z,9.62
2023-03-22T02:45:39.867Z,9.66
2023-03-22T02:46:39.966Z,9.59
2023-03-22T02:47:39.865Z,9.62
2023-03-22T02:48:39.860Z,9.58
2023-03-22T02:49:39.854Z,9.55
2023-03-22T02:50:40.278Z,9.62
2023-03-22T02:51:39.857Z,9.55
2023-03-22T02:52:39.842Z,9.56
2023-03-22T02:53:39.837Z,9.59
2023-03-22T02:54:39.835Z,9.54
2023-03-22T02:55:39.854Z,9.61
2023-03-22T02:56:39.827Z,9.47
2023-03-22T02:57:39.826Z,9.48
2023-03-22T02:58:39.821Z,9.59
2023-03-22T02:59:39.825Z,9.48
2023-03-22T03:00:40.028Z,9.50
2023-03-22T03:01:39.921Z,9.46
2023-03-22T03:02:39.809Z,9.47
2023-03-22T03:03:39.836Z,9.44
2023-03-22T03:04:39.798Z,9.46
2023-03-22T03:05:39.798Z,9.41
2023-03-22T03:06:39.858Z,9.46
2023-03-22T03:07:39.788Z,9.43
2023-03-22T03:08:39.790Z,9.48
2023-03-22T03:09:39.785Z,9.48
2023-03-22T03:10:39.997Z,9.43
2023-03-22T03:11:39.772Z,9.47
2023-03-22T03:12:39.770Z,9.39
2023-03-22T03:13:39.765Z,9.43
2023-03-22T03:14:39.765Z,9.44
2023-03-22T03:15:39.763Z,9.46
2023-03-22T03:16:39.806Z,9.43
2023-03-22T03:17:39.752Z,9.54
2023-03-22T03:18:39.748Z,9.54
2023-03-22T03:19:39.741Z,9.50
2023-03-22T03:20:40.139Z,9.50
2023-03-22T03:21:39.737Z,9.47
2023-03-22T03:22:39.749Z,9.50
2023-03-22T03:23:39.727Z,9.41
2023-03-22T03:24:39.723Z,9.46
2023-03-22T03:25:39.720Z,9.55
2023-03-22T03:26:39.755Z,9.47
2023-03-22T03:27:39.712Z,9.41
2023-03-22T03:28:39.713Z,9.41
2023-03-22T03:29:39.710Z,9.54
2023-03-22T03:30:39.937Z,9.40
2023-03-22T03:31:39.776Z,9.55
2023-03-22T03:32:39.694Z,9.46
2023-03-22T03:33:39.690Z,9.47
2023-03-22T03:34:39.707Z,9.40
2023-03-22T03:35:39.705Z,9.41
2023-03-22T03:36:39.679Z,9.44
2023-03-22T03:37:39.675Z,9.44
2023-03-22T03:38:39.792Z,9.44
2023-03-22T03:39:39.670Z,9.48
2023-03-22T03:40:39.934Z,9.47
2023-03-22T03:41:39.660Z,9.44
2023-03-22T03:42:39.657Z,9.41
2023-03-22T03:43:39.654Z,9.46
2023-03-22T03:44:39.651Z,9.40
2023-03-22T03:45:39.672Z,9.44
2023-03-22T03:46:39.652Z,9.39
2023-03-22T03:47:39.642Z,9.41
2023-03-22T03:48:39.638Z,9.44
2023-03-22T03:49:39.639Z,9.39
2023-03-22T03:50:39.874Z,9.39
2023-03-22T03:51:39.622Z,9.29
2023-03-22T03:52:39.620Z,9.41
2023-03-22T03:53:39.615Z,9.37
2023-03-22T03:54:39.634Z,9.29
2023-03-22T03:55:39.610Z,9.39
2023-03-22T03:56:39.608Z,9.28
2023-03-22T03:57:39.601Z,9.39
2023-03-22T03:58:39.600Z,9.34
2023-03-22T03:59:39.596Z,9.28
2023-03-22T04:00:39.934Z,9.25
2023-03-22T04:01:39.586Z,9.32
2023-03-22T04:02:39.615Z,9.29
2023-03-22T04:03:39.583Z,9.31
2023-03-22T04:04:39.641Z,9.29
2023-03-22T04:05:39.586Z,9.32
2023-03-22T04:06:39.573Z,9.29
2023-03-22T04:07:39.574Z,9.28
2023-03-22T04:08:39.561Z,9.32
2023-03-22T04:09:39.555Z,9.26
2023-03-22T04:10:39.907Z,9.26
2023-03-22T04:11:39.550Z,9.26
2023-03-22T04:12:39.553Z,9.28
2023-03-22T04:13:39.540Z,9.29
2023-03-22T04:14:39.540Z,9.26
2023-03-22T04:15:39.535Z,9.25
2023-03-22T04:16:39.557Z,9.22
2023-03-22T04:17:39.525Z,9.22
2023-03-22T04:18:39.523Z,9.23
2023-03-22T04:19:39.517Z,9.29
2023-03-22T04:20:39.778Z,9.10
2023-03-22T04:21:39.538Z,9.18
2023-03-22T04:22:39.511Z,9.23
2023-03-22T04:23:39.503Z,9.21
2023-03-22T04:24:39.498Z,9.22
2023-03-22T04:25:39.494Z,9.19
2023-03-22T04:26:39.518Z,9.21
2023-03-22T04:27:39.489Z,9.14
2023-03-22T04:28:39.488Z,9.19
2023-03-22T04:29:39.486Z,9.21
2023-03-22T04:30:39.733Z,9.14
2023-03-22T04:31:39.471Z,9.16
2023-03-22T04:32:39.473Z,9.18
2023-03-22T04:33:39.594Z,9.18
2023-03-22T04:34:39.463Z,9.14
2023-03-22T04:35:39.491Z,9.22
2023-03-22T04:36:39.464Z,9.10
2023-03-22T04:37:39.448Z,9.19
2023-03-22T04:38:39.460Z,9.19
2023-03-22T04:39:39.436Z,9.16
2023-03-22T04:40:39.686Z,9.19
2023-03-22T04:41:39.432Z,9.19
2023-03-22T04:42:39.447Z,9.18
2023-03-22T04:43:39.463Z,9.08
2023-03-22T04:44:39.418Z,9.23
2023-03-22T04:45:39.413Z,9.14
2023-03-22T04:46:39.528Z,9.19
2023-03-22T04:47:39.407Z,9.23
2023-03-22T04:48:39.404Z,9.23
2023-03-22T04:49:39.403Z,9.21
2023-03-22T04:50:39.594Z,9.22
2023-03-22T04:51:39.397Z,9.16
2023-03-22T04:52:39.391Z,9.23
2023-03-22T04:53:39.389Z,9.16
2023-03-22T04:54:39.381Z,9.22
2023-03-22T04:55:39.374Z,9.13
2023-03-22T04:56:39.373Z,9.22
2023-03-22T04:57:39.365Z,9.22
2023-03-22T04:58:39.393Z,9.19
2023-03-22T04:59:39.359Z,9.19
2023-03-22T05:00:39.661Z,9.18
2023-03-22T05:01:39.365Z,9.19
2023-03-22T05:02:41.106Z,9.22
2023-03-22T05:03:39.342Z,9.11
2023-03-22T05:04:39.338Z,9.21
2023-03-22T05:05:39.334Z,9.08
2023-03-22T05:06:39.339Z,9.16
2023-03-22T05:07:39.358Z,9.14
2023-03-22T05:08:39.340Z,9.23
2023-03-22T05:09:39.318Z,9.22
2023-03-22T05:10:39.526Z,9.21
2023-03-22T05:11:39.315Z,9.16
2023-03-22T05:12:39.310Z,9.16
2023-03-22T05:13:39.307Z,9.16
2023-03-22T05:14:39.414Z,9.25
2023-03-22T05:15:39.320Z,9.25
2023-03-22T05:16:39.294Z,9.21
2023-03-22T05:17:39.289Z,9.21
2023-03-22T05:18:39.284Z,9.21
2023-03-22T05:19:39.281Z,9.23
2023-03-22T05:20:39.570Z,9.25
2023-03-22T05:21:39.272Z,9.21
2023-03-22T05:22:39.273Z,9.22
2023-03-22T05:23:39.266Z,9.22
2023-03-22T05:24:39.261Z,9.22
2023-03-22T05:25:39.260Z,9.21
2023-03-22T05:26:39.405Z,9.26
2023-03-22T05:27:39.294Z,9.28
2023-03-22T05:28:39.244Z,9.19
2023-03-22T05:29:39.241Z,9.22
2023-03-22T05:30:39.682Z,9.25
2023-03-22T05:31:39.285Z,9.25
2023-03-22T05:32:39.231Z,9.31
2023-03-22T05:33:39.226Z,9.25
2023-03-22T05:34:39.224Z,9.25
2023-03-22T05:35:39.320Z,9.23
2023-03-22T05:36:39.222Z,9.29
2023-03-22T05:37:39.216Z,9.21
2023-03-22T05:38:39.208Z,9.28
2023-03-22T05:39:39.204Z,9.23
2023-03-22T05:40:39.465Z,9.22
2023-03-22T05:41:39.194Z,9.32
2023-03-22T05:42:39.208Z,9.31
2023-03-22T05:43:39.191Z,9.29
2023-03-22T05:44:39.185Z,9.34
2023-03-22T05:45:39.183Z,9.31
2023-03-22T05:46:39.296Z,9.31
2023-03-22T05:47:39.180Z,9.26
2023-03-22T05:48:39.170Z,9.29
2023-03-22T05:49:39.214Z,9.29
2023-03-22T05:50:39.468Z,9.28
2023-03-22T05:51:39.161Z,9.32
2023-03-22T05:52:39.179Z,9.37
2023-03-22T05:53:39.151Z,9.41
2023-03-22T05:54:39.167Z,9.37
2023-03-22T05:55:39.148Z,9.39
2023-03-22T05:56:39.142Z,9.39
2023-03-22T05:57:39.141Z,9.46
2023-03-22T05:58:39.134Z,9.41
2023-03-22T05:59:39.137Z,9.40
2023-03-22T06:00:39.393Z,9.40
2023-03-22T06:01:39.133Z,9.43
2023-03-22T06:02:39.224Z,9.46
2023-03-22T06:03:39.216Z,9.48
2023-03-22T06:04:39.124Z,9.44
2023-03-22T06:05:39.112Z,9.47
2023-03-22T06:06:39.104Z,9.56
2023-03-22T06:07:39.098Z,9.43
2023-03-22T06:08:39.099Z,9.59
2023-03-22T06:09:39.090Z,9.54
2023-03-22T06:10:39.468Z,9.47
2023-03-22T06:11:39.084Z,9.50
2023-03-22T06:12:39.083Z,9.48
2023-03-22T06:13:39.079Z,9.47
2023-03-22T06:14:39.076Z,9.59
2023-03-22T06:15:39.078Z,9.54
2023-03-22T06:16:39.124Z,9.48
2023-03-22T06:17:39.056Z,9.54
2023-03-22T06:18:39.080Z,9.58
2023-03-22T06:19:39.053Z,9.55
2023-03-22T06:20:39.304Z,9.55
2023-03-22T06:21:39.044Z,9.62
2023-03-22T06:22:39.046Z,9.58
2023-03-22T06:23:39.034Z,9.58
2023-03-22T06:24:39.032Z,9.66
2023-03-22T06:25:39.030Z,9.59
2023-03-22T06:26:39.025Z,9.68
2023-03-22T06:27:39.023Z,9.59
2023-03-22T06:28:39.015Z,9.66
2023-03-22T06:29:39.010Z,9.54
2023-03-22T06:30:39.430Z,9.59
2023-03-22T06:31:39.258Z,9.69
2023-03-22T06:32:39.000Z,9.69
2023-03-22T06:33:38.993Z,9.64
2023-03-22T06:34:39.020Z,9.64
2023-03-22T06:35:39.045Z,9.73
2023-03-22T06:36:38.980Z,9.68
2023-03-22T06:37:38.978Z,9.69
2023-03-22T06:38:38.979Z,9.72
2023-03-22T06:39:38.980Z,9.73
2023-03-22T06:40:39.306Z,9.77
2023-03-22T06:41:38.960Z,9.82
2023-03-22T06:42:38.961Z,9.72
2023-03-22T06:43:38.954Z,9.84
2023-03-22T06:44:38.946Z,9.77
2023-03-22T06:45:38.999Z,9.82
2023-03-22T06:46:38.936Z,9.82
2023-03-22T06:47:38.934Z,9.82
2023-03-22T06:48:38.941Z,9.84
2023-03-22T06:49:38.922Z,9.87
2023-03-22T06:50:39.949Z,9.95
2023-03-22T06:51:38.918Z,9.92
2023-03-22T06:52:38.912Z,10.02
2023-03-22T06:53:38.929Z,9.91
2023-03-22T06:54:38.903Z,10.04
2023-03-22T06:55:38.900Z,10.07
2023-03-22T06:56:38.898Z,10.10
2023-03-22T06:57:38.898Z,10.12
2023-03-22T06:58:38.891Z,10.10
2023-03-22T06:59:38.882Z,10.07
2023-03-22T07:00:39.337Z,10.15
2023-03-22T07:01:39.005Z,10.13
2023-03-22T07:02:38.873Z,10.10
2023-03-22T07:03:38.879Z,10.15
2023-03-22T07:04:38.884Z,10.09
2023-03-22T07:05:38.863Z,10.16
2023-03-22T07:06:38.888Z,10.22
2023-03-22T07:07:38.855Z,10.23
2023-03-22T07:08:38.854Z,10.25
2023-03-22T07:09:38.850Z,10.25
2023-03-22T07:10:39.114Z,10.26
2023-03-22T07:11:38.857Z,10.22
2023-03-22T07:12:38.835Z,10.26
2023-03-22T07:13:38.843Z,10.34
2023-03-22T07:14:38.835Z,10.22
2023-03-22T07:15:38.885Z,10.28
2023-03-22T07:16:38.917Z,10.30
2023-03-22T07:17:38.824Z,10.30
2023-03-22T07:18:38.813Z,10.34
2023-03-22T07:19:38.811Z,10.31
2023-03-22T07:20:39.120Z,10.42
2023-03-22T07:21:38.803Z,10.38
2023-03-22T07:22:38.817Z,10.44
2023-03-22T07:23:38.801Z,10.41
2023-03-22T07:24:47.407Z,10.41
2023-03-22T07:25:38.798Z,10.46
2023-03-22T07:26:38.786Z,10.42
2023-03-22T07:27:38.786Z,10.53
2023-03-22T07:28:38.781Z,10.64
2023-03-22T07:29:38.774Z,10.68
2023-03-22T07:30:39.089Z,10.59
2023-03-22T07:31:38.988Z,10.74
2023-03-22T07:32:38.794Z,10.76
2023-03-22T07:33:38.761Z,10.89
2023-03-22T07:34:38.779Z,10.87
2023-03-22T07:35:38.785Z,10.93
2023-03-22T07:36:38.748Z,10.94
2023-03-22T07:37:38.749Z,11.11
2023-03-22T07:38:38.770Z,11.04
2023-03-22T07:39:38.743Z,11.04
2023-03-22T07:40:39.090Z,11.11
2023-03-22T07:41:38.735Z,11.07
2023-03-22T07:42:38.732Z,11.18
2023-03-22T07:43:52.427Z,11.26
2023-03-22T07:44:38.725Z,11.33
2023-03-22T07:45:38.795Z,11.30
2023-03-22T07:46:38.760Z,11.35
2023-03-22T07:47:44.664Z,11.32
2023-03-22T07:48:38.712Z,11.37
2023-03-22T07:49:38.716Z,11.47
2023-03-22T07:50:39.116Z,11.70
2023-03-22T07:51:38.719Z,11.68
2023-03-22T07:52:38.702Z,11.77
2023-03-22T07:53:38.701Z,11.77
2023-03-22T07:54:38.850Z,11.72
2023-03-22T07:55:38.695Z,11.68
2023-03-22T07:56:38.698Z,11.68
2023-03-22T07:57:38.690Z,11.62
2023-03-22T07:58:38.767Z,11.66
2023-03-22T07:59:40.223Z,11.52
2023-03-22T08:00:38.966Z,11.54
2023-03-22T08:01:38.736Z,11.54
2023-03-22T08:02:38.832Z,11.45
2023-03-22T08:03:38.678Z,11.48
2023-03-22T08:04:38.673Z,11.57
2023-03-22T08:05:38.887Z,11.47
2023-03-22T08:06:38.663Z,11.50
2023-03-22T08:07:38.665Z,11.54
2023-03-22T08:08:38.676Z,11.48
2023-03-22T08:09:38.661Z,11.48
2023-03-22T08:10:39.070Z,11.45
2023-03-22T08:11:38.652Z,11.48
2023-03-22T08:12:38.644Z,11.41
2023-03-22T08:13:38.642Z,11.36
2023-03-22T08:14:38.640Z,11.48
2023-03-22T08:15:39.183Z,11.43
2023-03-22T08:16:38.855Z,11.43
2023-03-22T08:17:38.634Z,11.37
2023-03-22T08:18:38.627Z,11.37
2023-03-22T08:19:38.631Z,11.33
2023-03-22T08:20:38.966Z,11.33
2023-03-22T08:21:38.617Z,11.32
2023-03-22T08:22:38.613Z,11.33
2023-03-22T08:23:42.104Z,11.32
2023-03-22T08:24:38.608Z,11.32
2023-03-22T08:25:38.610Z,11.32
2023-03-22T08:26:38.621Z,11.27
2023-03-22T08:27:38.600Z,11.32
2023-03-22T08:28:38.597Z,11.27
2023-03-22T08:29:38.596Z,11.27
2023-03-22T08:30:38.922Z,11.30
2023-03-22T08:31:38.679Z,11.35
2023-03-22T08:32:38.592Z,11.30
2023-03-22T08:33:38.658Z,11.29
2023-03-22T08:34:38.577Z,11.43
2023-03-22T08:35:38.960Z,11.40
2023-03-22T08:36:38.722Z,11.47
2023-03-22T08:37:38.581Z,11.50
2023-03-22T08:38:38.565Z,11.54
2023-03-22T08:39:38.565Z,11.52
2023-03-22T08:40:38.665Z,11.50
2023-03-22T08:41:38.556Z,11.57
2023-03-22T08:42:38.585Z,11.54
2023-03-22T08:43:38.639Z,11.65
2023-03-22T08:44:38.549Z,11.70
2023-03-22T08:45:39.089Z,11.78
2023-03-22T08:46:38.558Z,11.78
2023-03-22T08:47:38.544Z,11.81
2023-03-22T08:48:38.546Z,11.78
2023-03-22T08:49:38.533Z,11.75
2023-03-22T08:50:38.532Z,11.84
2023-03-22T08:51:38.524Z,11.91
2023-03-22T08:52:38.522Z,12.04
2023-03-22T08:53:38.544Z,11.97
2023-03-22T08:54:38.517Z,12.10
2023-03-22T08:55:38.758Z,12.13
2023-03-22T08:56:38.503Z,12.21
2023-03-22T08:57:39.028Z,12.27
2023-03-22T08:58:38.519Z,12.24
2023-03-22T08:59:38.505Z,12.37
2023-03-22T09:00:48.172Z,12.40
2023-03-22T09:01:38.610Z,12.37
2023-03-22T09:02:38.491Z,12.50
2023-03-22T09:03:38.491Z,12.65
2023-03-22T09:04:38.516Z,12.61
2023-03-22T09:05:38.813Z,12.72
2023-03-22T09:06:38.480Z,12.72
2023-03-22T09:07:38.481Z,12.73
2023-03-22T09:08:38.506Z,12.73
2023-03-22T09:09:38.471Z,12.75
2023-03-22T09:10:38.463Z,12.68
2023-03-22T09:11:38.465Z,12.60
2023-03-22T09:12:38.485Z,12.67
2023-03-22T09:13:38.466Z,12.55
2023-03-22T09:14:38.471Z,12.64
2023-03-22T09:15:38.658Z,12.55
2023-03-22T09:16:38.568Z,12.58
2023-03-22T09:17:38.446Z,12.64
2023-03-22T09:18:38.449Z,12.62
2023-03-22T09:19:38.448Z,12.58
2023-03-22T09:20:38.870Z,12.55
2023-03-22T09:21:38.434Z,12.57
2023-03-22T09:22:38.441Z,12.53
2023-03-22T09:23:38.433Z,12.60
2023-03-22T09:24:38.421Z,12.53
2023-03-22T09:25:38.695Z,12.50
2023-03-22T09:26:38.421Z,12.50
2023-03-22T09:27:38.426Z,12.50
2023-03-22T09:28:38.611Z,12.55
2023-03-22T09:29:38.409Z,12.61
2023-03-22T09:30:38.691Z,12.50
2023-03-22T09:31:38.460Z,12.49
2023-03-22T09:32:38.610Z,12.47
2023-03-22T09:33:38.394Z,12.61
2023-03-22T09:34:38.388Z,12.61
2023-03-22T09:35:38.694Z,12.61
2023-03-22T09:36:38.536Z,12.58
2023-03-22T09:37:38.386Z,12.67
2023-03-22T09:38:38.384Z,12.70
2023-03-22T09:39:38.400Z,12.85
2023-03-22T09:40:38.376Z,12.76
2023-03-22T09:41:38.370Z,12.85
2023-03-22T09:42:38.368Z,12.85
2023-03-22T09:43:38.371Z,12.86
2023-03-22T09:44:38.363Z,12.78
2023-03-22T09:45:38.833Z,12.75
2023-03-22T09:46:38.469Z,12.75
2023-03-22T09:47:44.867Z,12.73
2023-03-22T09:48:38.348Z,12.73
2023-03-22T09:49:50.718Z,12.76
2023-03-22T09:50:38.349Z,12.72
2023-03-22T09:51:38.347Z,12.68
2023-03-22T09:52:38.342Z,12.64
2023-03-22T09:53:38.344Z,12.64
2023-03-22T09:54:38.336Z,12.65
2023-03-22T09:55:38.701Z,12.57
2023-03-22T09:56:38.330Z,12.62
2023-03-22T09:57:38.332Z,12.60
2023-03-22T09:58:38.385Z,12.60
2023-03-22T09:59:38.321Z,12.57
2023-03-22T10:00:38.495Z,12.64
2023-03-22T10:01:38.784Z,12.67
2023-03-22T10:02:38.424Z,12.58
2023-03-22T10:03:38.311Z,12.49
2023-03-22T10:04:38.357Z,12.61
2023-03-22T10:05:38.526Z,12.64
2023-03-22T10:06:38.298Z,12.57
2023-03-22T10:07:38.297Z,12.53
2023-03-22T10:08:38.301Z,12.53
2023-03-22T10:09:38.292Z,12.57
2023-03-22T10:10:38.286Z,12.50
2023-03-22T10:11:38.288Z,12.62
2023-03-22T10:12:38.279Z,12.58
2023-03-22T10:13:38.278Z,12.65
2023-03-22T10:14:38.285Z,12.55
2023-03-22T10:15:38.734Z,12.60
2023-03-22T10:16:38.267Z,12.62
2023-03-22T10:17:38.269Z,12.61
2023-03-22T10:18:38.284Z,12.64
2023-03-22T10:19:38.263Z,12.60
2023-03-22T10:20:38.264Z,12.65
2023-03-22T10:21:38.254Z,12.61
2023-03-22T10:22:38.250Z,12.78
2023-03-22T10:23:38.250Z,12.64
2023-03-22T10:24:38.249Z,12.64
2023-03-22T10:25:38.632Z,12.72
2023-03-22T10:26:38.238Z,12.90
2023-03-22T10:27:38.238Z,12.87
2023-03-22T10:28:38.234Z,12.82
2023-03-22T10:29:38.243Z,12.76
2023-03-22T10:30:38.744Z,12.80
2023-03-22T10:31:38.300Z,12.97
2023-03-22T10:32:51.080Z,12.82
2023-03-22T10:33:38.221Z,12.79
2023-03-22T10:34:38.239Z,12.91
2023-03-22T10:35:38.254Z,12.91
2023-03-22T10:36:38.462Z,12.94
2023-03-22T10:37:38.212Z,12.98
2023-03-22T10:38:38.207Z,13.01
2023-03-22T10:39:39.800Z,13.09
2023-03-22T10:40:38.208Z,13.08
2023-03-22T10:41:38.200Z,13.04
2023-03-22T10:42:38.196Z,13.11
2023-03-22T10:43:38.194Z,13.08
2023-03-22T10:44:38.189Z,13.12
2023-03-22T10:45:38.301Z,13.13
2023-03-22T10:46:38.254Z,13.15
2023-03-22T10:47:38.186Z,13.12
2023-03-22T10:48:38.177Z,13.01
2023-03-22T10:49:38.181Z,13.09
2023-03-22T10:50:38.204Z,12.97
2023-03-22T10:51:38.175Z,13.00
2023-03-22T10:52:38.171Z,12.95
2023-03-22T10:53:38.167Z,13.01
2023-03-22T10:54:38.162Z,13.04
2023-03-22T10:55:38.358Z,13.03
2023-03-22T10:56:38.158Z,12.95
2023-03-22T10:57:38.161Z,13.13
2023-03-22T10:58:38.152Z,13.05
2023-03-22T10:59:38.156Z,13.08
2023-03-22T11:00:41.881Z,13.08
2023-03-22T11:01:38.311Z,13.12
2023-03-22T11:02:38.528Z,13.01
2023-03-22T11:03:38.171Z,13.12
2023-03-22T11:04:38.141Z,13.08
2023-03-22T11:05:38.518Z,13.08
2023-03-22T11:06:38.190Z,13.12
2023-03-22T11:07:38.133Z,13.12
2023-03-22T11:08:38.125Z,13.11
2023-03-22T11:09:38.124Z,13.08
2023-03-22T11:10:38.153Z,13.11
2023-03-22T11:11:38.120Z,13.16
2023-03-22T11:12:39.938Z,13.04
2023-03-22T11:13:38.117Z,13.12
2023-03-22T11:14:38.111Z,13.08
2023-03-22T11:15:38.354Z,13.13
2023-03-22T11:16:38.136Z,13.09
2023-03-22T11:17:38.104Z,13.16
2023-03-22T11:18:38.103Z,13.11
2023-03-22T11:19:38.100Z,13.08
2023-03-22T11:20:38.455Z,13.13
2023-03-22T11:21:38.116Z,13.13
2023-03-22T11:22:38.109Z,13.12
2023-03-22T11:23:38.085Z,13.09
2023-03-22T11:24:38.081Z,13.12
2023-03-22T11:25:38.085Z,13.09
2023-03-22T11:26:40.784Z,13.12
2023-03-22T11:27:38.083Z,13.15
2023-03-22T11:28:38.109Z,13.09
2023-03-22T11:29:38.075Z,13.01
2023-03-22T11:30:38.261Z,12.94
2023-03-22T11:31:38.108Z,13.05
2023-03-22T11:32:38.118Z,12.98
2023-03-22T11:33:38.065Z,12.94
2023-03-22T11:34:38.083Z,13.00
2023-03-22T11:35:38.086Z,12.93
2023-03-22T11:36:38.056Z,12.93
2023-03-22T11:37:38.056Z,12.98
2023-03-22T11:38:38.117Z,12.95
2023-03-22T11:39:38.051Z,12.91
2023-03-22T11:40:38.098Z,12.91
2023-03-22T11:41:38.051Z,12.82
2023-03-22T11:42:38.049Z,12.80
2023-03-22T11:43:38.061Z,12.80
2023-03-22T11:44:38.355Z,12.90
2023-03-22T11:45:38.078Z,12.72
2023-03-22T11:46:38.173Z,12.76
2023-03-22T11:47:38.168Z,12.72
2023-03-22T11:48:38.198Z,12.78
2023-03-22T11:49:38.052Z,12.85
2023-03-22T11:50:38.172Z,12.78
2023-03-22T11:51:38.021Z,12.73
2023-03-22T11:52:38.017Z,12.68
2023-03-22T11:53:38.015Z,12.76
2023-03-22T11:54:38.037Z,12.68
2023-03-22T11:55:38.188Z,12.76
2023-03-22T11:56:38.006Z,12.75
2023-03-22T11:57:38.019Z,12.72
2023-03-22T11:58:38.001Z,12.76
2023-03-22T11:59:38.000Z,12.73
2023-03-22T12:00:37.999Z,12.75
2023-03-22T12:01:37.986Z,12.78
2023-03-22T12:02:38.193Z,12.78
2023-03-22T12:03:39.511Z,12.87
2023-03-22T12:04:38.065Z,12.86
2023-03-22T12:05:38.063Z,12.68
2023-03-22T12:06:38.066Z,12.76
2023-03-22T12:07:37.992Z,12.85
2023-03-22T12:08:37.975Z,12.86
2023-03-22T12:09:37.968Z,12.75
2023-03-22T12:10:37.997Z,12.73
2023-03-22T12:11:37.960Z,12.82
2023-03-22T12:12:37.957Z,12.94
2023-03-22T12:13:37.960Z,12.87
2023-03-22T12:14:37.951Z,12.82
2023-03-22T12:15:37.992Z,12.72
2023-03-22T12:16:38.046Z,12.85
2023-03-22T12:17:38.013Z,12.80
2023-03-22T12:18:37.947Z,12.80
2023-03-22T12:19:37.956Z,12.73
2023-03-22T12:20:38.367Z,12.73
2023-03-22T12:21:37.941Z,12.73
2023-03-22T12:22:37.932Z,12.83
2023-03-22T12:23:37.934Z,12.82
2023-03-22T12:24:37.933Z,12.86
2023-03-22T12:25:38.076Z,12.85
2023-03-22T12:26:37.949Z,12.79
2023-03-22T12:27:37.929Z,12.73
2023-03-22T12:28:37.919Z,12.72
2023-03-22T12:29:37.929Z,12.64
2023-03-22T12:30:37.911Z,12.72
2023-03-22T12:31:37.991Z,12.62
2023-03-22T12:32:38.029Z,12.64
2023-03-22T12:33:37.921Z,12.68
2023-03-22T12:34:37.907Z,12.62
2023-03-22T12:35:38.104Z,12.73
2023-03-22T12:36:37.899Z,12.70
2023-03-22T12:37:37.893Z,12.62
2023-03-22T12:38:37.890Z,12.62
2023-03-22T12:39:37.890Z,12.61
2023-03-22T12:40:38.087Z,12.58
2023-03-22T12:41:38.340Z,12.64
2023-03-22T12:42:47.578Z,12.65
2023-03-22T12:43:37.879Z,12.62
2023-03-22T12:44:37.873Z,12.58
2023-03-22T12:45:38.118Z,12.53
2023-03-22T12:46:37.970Z,12.49
2023-03-22T12:47:37.887Z,12.49
2023-03-22T12:48:38.072Z,12.46
2023-03-22T12:49:37.858Z,12.39
2023-03-22T12:50:38.066Z,12.36
2023-03-22T12:51:37.865Z,12.36
2023-03-22T12:52:45.330Z,12.36
2023-03-22T12:53:37.848Z,12.39
2023-03-22T12:54:37.854Z,12.39
2023-03-22T12:55:37.851Z,12.42
2023-03-22T12:56:37.843Z,12.36
2023-03-22T12:57:37.861Z,12.36
2023-03-22T12:58:37.869Z,12.28
2023-03-22T12:59:37.845Z,12.29
2023-03-22T13:00:38.125Z,12.21
2023-03-22T13:01:38.037Z,12.20